sensor_id;sensor_type;location;lat;lon;timestamp;temperature;humidity
43963;DHT22;29622;45.534;9.242;2023-03-01T00:02:26;8.10;50.00
43963;DHT22;29622;45.534;9.242;2023-03-01T00:07:26;8.30;50.10
43963;DHT22;29622;45.534;9.242;2023-03-01T00:12:27;8.40;50.00
43963;DHT22;29622;45.534;9.242;2023-03-01T00:17:28;8.60;50.50
43963;DHT22;29622;45.534;9.242;2023-03-01T00:22:29;8.60;49.70
43963;DHT22;29622;45.534;9.242;2023-03-01T00:27:30;8.50;49.90
43963;DHT22;29622;45.534;9.242;2023-03-01T00:32:30;8.50;50.00
43963;DHT22;29622;45.534;9.242;2023-03-01T00:37:31;8.50;50.40
43963;DHT22;29622;45.534;9.242;2023-03-01T00:42:32;8.50;50.60
43963;DHT22;29622;45.534;9.242;2023-03-01T00:47:32;8.50;50.60
43963;DHT22;29622;45.534;9.242;2023-03-01T00:52:33;8.50;50.60
43963;DHT22;29622;45.534;9.242;2023-03-01T00:57:34;8.50;50.60
43963;DHT22;29622;45.534;9.242;2023-03-01T01:02:35;8.40;50.50
43963;DHT22;29622;45.534;9.242;2023-03-01T01:07:36;8.20;50.60
43963;DHT22;29622;45.534;9.242;2023-03-01T01:12:36;8.20;50.60
43963;DHT22;29622;45.534;9.242;2023-03-01T01:17:37;8.10;50.60
43963;DHT22;29622;45.534;9.242;2023-03-01T01:22:38;8.10;50.60
43963;DHT22;29622;45.534;9.242;2023-03-01T01:27:39;8.00;50.60
43963;DHT22;29622;45.534;9.242;2023-03-01T01:32:39;7.90;50.70
43963;DHT22;29622;45.534;9.242;2023-03-01T01:37:40;7.80;50.80
43963;DHT22;29622;45.534;9.242;2023-03-01T01:42:40;7.70;50.90
43963;DHT22;29622;45.534;9.242;2023-03-01T01:47:41;7.70;50.90
43963;DHT22;29622;45.534;9.242;2023-03-01T01:52:42;7.60;51.00
43963;DHT22;29622;45.534;9.242;2023-03-01T01:57:50;7.60;51.10
43963;DHT22;29622;45.534;9.242;2023-03-01T02:02:56;7.50;51.10
43963;DHT22;29622;45.534;9.242;2023-03-01T02:07:58;7.50;51.10
43963;DHT22;29622;45.534;9.242;2023-03-01T02:13:00;7.60;51.20
43963;DHT22;29622;45.534;9.242;2023-03-01T02:18:02;7.60;51.10
43963;DHT22;29622;45.534;9.242;2023-03-01T02:23:03;7.70;51.10
43963;DHT22;29622;45.534;9.242;2023-03-01T02:33:17;7.60;51.00
43963;DHT22;29622;45.534;9.242;2023-03-01T02:38:17;7.70;50.90
43963;DHT22;29622;45.534;9.242;2023-03-01T02:43:19;7.70;51.00
43963;DHT22;29622;45.534;9.242;2023-03-01T02:48:21;7.60;51.00
43963;DHT22;29622;45.534;9.242;2023-03-01T02:58:55;7.60;51.10
43963;DHT22;29622;45.534;9.242;2023-03-01T03:04:02;7.50;51.00
43963;DHT22;29622;45.534;9.242;2023-03-01T03:09:04;7.50;51.20
43963;DHT22;29622;45.534;9.242;2023-03-01T03:14:05;7.50;51.20
43963;DHT22;29622;45.534;9.242;2023-03-01T03:19:06;7.40;51.20
43963;DHT22;29622;45.534;9.242;2023-03-01T03:24:07;7.50;51.20
43963;DHT22;29622;45.534;9.242;2023-03-01T03:29:08;7.40;51.20
43963;DHT22;29622;45.534;9.242;2023-03-01T03:34:09;7.40;51.20
43963;DHT22;29622;45.534;9.242;2023-03-01T03:39:18;7.30;51.20
43963;DHT22;29622;45.534;9.242;2023-03-01T03:44:19;7.30;51.40
43963;DHT22;29622;45.534;9.242;2023-03-01T03:49:19;7.20;51.40
43963;DHT22;29622;45.534;9.242;2023-03-01T03:54:20;7.20;52.00
43963;DHT22;29622;45.534;9.242;2023-03-01T03:59:21;7.10;51.50
43963;DHT22;29622;45.534;9.242;2023-03-01T04:04:21;7.10;51.70
43963;DHT22;29622;45.534;9.242;2023-03-01T04:09:22;7.10;51.70
43963;DHT22;29622;45.534;9.242;2023-03-01T04:14:22;7.10;51.60
43963;DHT22;29622;45.534;9.242;2023-03-01T04:19:23;7.00;51.70
43963;DHT22;29622;45.534;9.242;2023-03-01T04:24:24;6.90;51.80
43963;DHT22;29622;45.534;9.242;2023-03-01T04:29:24;6.80;52.30
43963;DHT22;29622;45.534;9.242;2023-03-01T04:34:25;6.80;51.90
43963;DHT22;29622;45.534;9.242;2023-03-01T04:39:27;6.70;51.90
43963;DHT22;29622;45.534;9.242;2023-03-01T04:44:27;6.60;52.10
43963;DHT22;29622;45.534;9.242;2023-03-01T04:49:28;6.60;52.20
43963;DHT22;29622;45.534;9.242;2023-03-01T04:54:32;6.60;52.30
43963;DHT22;29622;45.534;9.242;2023-03-01T04:59:32;6.50;52.30
43963;DHT22;29622;45.534;9.242;2023-03-01T05:04:33;6.40;52.50
43963;DHT22;29622;45.534;9.242;2023-03-01T05:09:34;6.20;52.60
43963;DHT22;29622;45.534;9.242;2023-03-01T05:14:34;6.10;52.70
43963;DHT22;29622;45.534;9.242;2023-03-01T05:19:35;6.10;52.80
43963;DHT22;29622;45.534;9.242;2023-03-01T05:24:36;6.10;53.50
43963;DHT22;29622;45.534;9.242;2023-03-01T05:29:36;6.20;53.00
43963;DHT22;29622;45.534;9.242;2023-03-01T05:34:39;6.20;53.00
43963;DHT22;29622;45.534;9.242;2023-03-01T05:39:40;6.30;53.10
43963;DHT22;29622;45.534;9.242;2023-03-01T05:44:42;6.30;53.10
43963;DHT22;29622;45.534;9.242;2023-03-01T05:49:42;6.20;53.20
43963;DHT22;29622;45.534;9.242;2023-03-01T05:54:43;6.20;53.30
43963;DHT22;29622;45.534;9.242;2023-03-01T05:59:45;6.10;53.40
43963;DHT22;29622;45.534;9.242;2023-03-01T06:04:45;6.10;53.60
43963;DHT22;29622;45.534;9.242;2023-03-01T06:09:46;6.20;53.70
43963;DHT22;29622;45.534;9.242;2023-03-01T06:14:46;6.20;53.70
43963;DHT22;29622;45.534;9.242;2023-03-01T06:19:50;6.20;53.80
43963;DHT22;29622;45.534;9.242;2023-03-01T06:24:50;6.30;53.80
43963;DHT22;29622;45.534;9.242;2023-03-01T06:29:51;6.30;53.80
43963;DHT22;29622;45.534;9.242;2023-03-01T06:34:52;6.30;53.80
43963;DHT22;29622;45.534;9.242;2023-03-01T06:39:52;6.40;54.00
43963;DHT22;29622;45.534;9.242;2023-03-01T06:44:53;6.40;53.90
43963;DHT22;29622;45.534;9.242;2023-03-01T06:49:54;6.50;53.90
43963;DHT22;29622;45.534;9.242;2023-03-01T06:54:54;6.60;53.90
43963;DHT22;29622;45.534;9.242;2023-03-01T06:59:55;6.70;53.80
43963;DHT22;29622;45.534;9.242;2023-03-01T07:04:56;6.80;53.80
43963;DHT22;29622;45.534;9.242;2023-03-01T07:09:56;6.80;53.80
43963;DHT22;29622;45.534;9.242;2023-03-01T07:14:57;6.90;53.80
43963;DHT22;29622;45.534;9.242;2023-03-01T07:19:58;7.00;53.70
43963;DHT22;29622;45.534;9.242;2023-03-01T07:25:02;7.10;53.60
43963;DHT22;29622;45.534;9.242;2023-03-01T07:30:03;7.30;53.50
43963;DHT22;29622;45.534;9.242;2023-03-01T07:35:08;7.50;53.30
43963;DHT22;29622;45.534;9.242;2023-03-01T07:40:09;7.70;53.10
43963;DHT22;29622;45.534;9.242;2023-03-01T07:45:11;8.20;53.30
43963;DHT22;29622;45.534;9.242;2023-03-01T07:50:16;8.40;52.20
43963;DHT22;29622;45.534;9.242;2023-03-01T07:55:17;8.30;52.00
43963;DHT22;29622;45.534;9.242;2023-03-01T08:00:18;8.30;51.80
43963;DHT22;29622;45.534;9.242;2023-03-01T08:05:19;8.20;51.60
43963;DHT22;29622;45.534;9.242;2023-03-01T08:10:22;8.50;51.60
43963;DHT22;29622;45.534;9.242;2023-03-01T08:15:23;8.50;51.10
43963;DHT22;29622;45.534;9.242;2023-03-01T08:20:24;8.50;50.70
43963;DHT22;29622;45.534;9.242;2023-03-01T08:25:25;8.50;50.60
43963;DHT22;29622;45.534;9.242;2023-03-01T08:30:26;8.60;50.40
43963;DHT22;29622;45.534;9.242;2023-03-01T08:35:27;8.70;50.10
43963;DHT22;29622;45.534;9.242;2023-03-01T08:40:31;8.70;50.00
43963;DHT22;29622;45.534;9.242;2023-03-01T08:45:33;8.70;49.90
43963;DHT22;29622;45.534;9.242;2023-03-01T08:50:34;8.60;49.80
43963;DHT22;29622;45.534;9.242;2023-03-01T08:55:35;8.50;49.80
43963;DHT22;29622;45.534;9.242;2023-03-01T09:00:36;8.50;49.70
43963;DHT22;29622;45.534;9.242;2023-03-01T09:05:38;8.70;49.60
43963;DHT22;29622;45.534;9.242;2023-03-01T09:10:39;8.60;49.30
43963;DHT22;29622;45.534;9.242;2023-03-01T09:15:40;8.70;49.40
43963;DHT22;29622;45.534;9.242;2023-03-01T09:20:41;9.20;50.60
43963;DHT22;29622;45.534;9.242;2023-03-01T09:25:42;9.00;49.50
43963;DHT22;29622;45.534;9.242;2023-03-01T09:30:46;9.20;49.80
43963;DHT22;29622;45.534;9.242;2023-03-01T09:35:47;9.20;49.10
43963;DHT22;29622;45.534;9.242;2023-03-01T09:40:48;9.00;49.00
43963;DHT22;29622;45.534;9.242;2023-03-01T09:45:51;8.90;49.10
43963;DHT22;29622;45.534;9.242;2023-03-01T09:50:53;9.10;49.10
43963;DHT22;29622;45.534;9.242;2023-03-01T10:12:18;9.60;48.80
43963;DHT22;29622;45.534;9.242;2023-03-01T10:17:24;9.80;48.50
43963;DHT22;29622;45.534;9.242;2023-03-01T10:22:30;10.00;48.10
43963;DHT22;29622;45.534;9.242;2023-03-01T10:27:44;9.70;47.80
43963;DHT22;29622;45.534;9.242;2023-03-01T10:32:52;9.80;48.20
43963;DHT22;29622;45.534;9.242;2023-03-01T10:38:06;10.10;47.50
43963;DHT22;29622;45.534;9.242;2023-03-01T10:43:11;10.00;47.50
43963;DHT22;29622;45.534;9.242;2023-03-01T10:48:21;10.10;47.50
43963;DHT22;29622;45.534;9.242;2023-03-01T10:53:41;10.20;47.20
43963;DHT22;29622;45.534;9.242;2023-03-01T10:59:04;10.00;46.80
43963;DHT22;29622;45.534;9.242;2023-03-01T11:09:20;9.90;46.90
43963;DHT22;29622;45.534;9.242;2023-03-01T11:14:30;10.10;46.70
43963;DHT22;29622;45.534;9.242;2023-03-01T11:19:33;10.20;46.50
43963;DHT22;29622;45.534;9.242;2023-03-01T11:24:47;10.40;46.30
43963;DHT22;29622;45.534;9.242;2023-03-01T11:30:07;10.50;46.40
43963;DHT22;29622;45.534;9.242;2023-03-01T11:35:20;10.50;46.00
43963;DHT22;29622;45.534;9.242;2023-03-01T11:45:42;11.40;46.20
43963;DHT22;29622;45.534;9.242;2023-03-01T11:50:48;11.40;45.70
43963;DHT22;29622;45.534;9.242;2023-03-01T11:55:57;11.30;45.70
43963;DHT22;29622;45.534;9.242;2023-03-01T12:01:03;11.20;45.70
43963;DHT22;29622;45.534;9.242;2023-03-01T12:11:36;11.30;45.90
43963;DHT22;29622;45.534;9.242;2023-03-01T12:27:36;11.60;46.00
43963;DHT22;29622;45.534;9.242;2023-03-01T12:38:18;11.90;45.30
43963;DHT22;29622;45.534;9.242;2023-03-01T12:43:22;12.00;45.20
43963;DHT22;29622;45.534;9.242;2023-03-01T12:48:49;12.20;44.70
43963;DHT22;29622;45.534;9.242;2023-03-01T12:53:55;11.90;44.50
43963;DHT22;29622;45.534;9.242;2023-03-01T13:04:29;12.00;44.70
43963;DHT22;29622;45.534;9.242;2023-03-01T13:14:54;12.70;44.90
43963;DHT22;29622;45.534;9.242;2023-03-01T13:19:59;14.10;44.40
43963;DHT22;29622;45.534;9.242;2023-03-01T13:25:17;14.60;43.20
43963;DHT22;29622;45.534;9.242;2023-03-01T13:35:43;15.40;42.70
43963;DHT22;29622;45.534;9.242;2023-03-01T13:45:49;15.80;42.90
43963;DHT22;29622;45.534;9.242;2023-03-01T13:51:05;16.00;43.00
43963;DHT22;29622;45.534;9.242;2023-03-01T13:56:17;16.00;42.60
43963;DHT22;29622;45.534;9.242;2023-03-01T14:01:25;16.20;42.40
43963;DHT22;29622;45.534;9.242;2023-03-01T14:06:31;16.20;42.30
43963;DHT22;29622;45.534;9.242;2023-03-01T14:22:23;15.10;41.40
43963;DHT22;29622;45.534;9.242;2023-03-01T14:27:39;14.90;41.40
43963;DHT22;29622;45.534;9.242;2023-03-01T14:32:42;15.00;42.30
43963;DHT22;29622;45.534;9.242;2023-03-01T14:37:43;15.40;42.90
43963;DHT22;29622;45.534;9.242;2023-03-01T14:42:47;15.70;42.40
43963;DHT22;29622;45.534;9.242;2023-03-01T14:47:50;15.50;42.20
43963;DHT22;29622;45.534;9.242;2023-03-01T14:52:57;15.80;42.50
43963;DHT22;29622;45.534;9.242;2023-03-01T14:57:59;16.20;42.30
43963;DHT22;29622;45.534;9.242;2023-03-01T15:03:13;16.40;41.30
43963;DHT22;29622;45.534;9.242;2023-03-01T15:08:21;16.00;40.90
43963;DHT22;29622;45.534;9.242;2023-03-01T15:13:33;15.60;41.00
43963;DHT22;29622;45.534;9.242;2023-03-01T15:18:35;15.30;41.20
43963;DHT22;29622;45.534;9.242;2023-03-01T15:23:38;15.60;42.10
43963;DHT22;29622;45.534;9.242;2023-03-01T15:28:48;16.60;41.90
43963;DHT22;29622;45.534;9.242;2023-03-01T15:33:49;17.10;40.80
43963;DHT22;29622;45.534;9.242;2023-03-01T15:38:55;17.50;40.20
43963;DHT22;29622;45.534;9.242;2023-03-01T15:43:58;17.90;40.10
43963;DHT22;29622;45.534;9.242;2023-03-01T15:49:02;18.30;39.50
43963;DHT22;29622;45.534;9.242;2023-03-01T15:54:09;18.70;39.20
43963;DHT22;29622;45.534;9.242;2023-03-01T15:59:13;19.00;38.70
43963;DHT22;29622;45.534;9.242;2023-03-01T16:04:18;19.30;38.30
43963;DHT22;29622;45.534;9.242;2023-03-01T16:09:24;19.00;38.00
43963;DHT22;29622;45.534;9.242;2023-03-01T16:14:25;18.50;38.10
43963;DHT22;29622;45.534;9.242;2023-03-01T16:19:26;17.50;38.40
43963;DHT22;29622;45.534;9.242;2023-03-01T16:24:41;16.50;39.00
43963;DHT22;29622;45.534;9.242;2023-03-01T16:29:44;15.60;39.60
43963;DHT22;29622;45.534;9.242;2023-03-01T16:34:45;15.50;40.40
43963;DHT22;29622;45.534;9.242;2023-03-01T16:39:49;15.50;40.30
43963;DHT22;29622;45.534;9.242;2023-03-01T16:44:55;15.30;40.40
43963;DHT22;29622;45.534;9.242;2023-03-01T16:49:59;15.40;40.20
43963;DHT22;29622;45.534;9.242;2023-03-01T16:55:41;15.50;40.30
43963;DHT22;29622;45.534;9.242;2023-03-01T17:00:45;15.40;40.10
43963;DHT22;29622;45.534;9.242;2023-03-01T17:05:47;15.30;40.40
43963;DHT22;29622;45.534;9.242;2023-03-01T17:10:51;15.60;40.60
43963;DHT22;29622;45.534;9.242;2023-03-01T17:15:58;15.80;40.30
43963;DHT22;29622;45.534;9.242;2023-03-01T17:20:59;16.20;40.40
43963;DHT22;29622;45.534;9.242;2023-03-01T17:26:00;16.60;40.50
43963;DHT22;29622;45.534;9.242;2023-03-01T17:31:06;16.70;40.80
43963;DHT22;29622;45.534;9.242;2023-03-01T17:36:07;17.10;41.30
43963;DHT22;29622;45.534;9.242;2023-03-01T17:41:08;17.10;41.10
43963;DHT22;29622;45.534;9.242;2023-03-01T17:46:11;16.80;41.80
43963;DHT22;29622;45.534;9.242;2023-03-01T17:51:18;17.20;42.50
43963;DHT22;29622;45.534;9.242;2023-03-01T17:56:24;17.50;42.30
43963;DHT22;29622;45.534;9.242;2023-03-01T18:01:42;17.10;42.10
43963;DHT22;29622;45.534;9.242;2023-03-01T18:06:53;16.10;42.20
43963;DHT22;29622;45.534;9.242;2023-03-01T18:12:05;15.40;43.80
43963;DHT22;29622;45.534;9.242;2023-03-01T18:17:14;15.30;42.50
43963;DHT22;29622;45.534;9.242;2023-03-01T18:22:15;13.30;43.90
43963;DHT22;29622;45.534;9.242;2023-03-01T18:27:17;11.90;45.50
43963;DHT22;29622;45.534;9.242;2023-03-01T18:32:18;11.50;47.20
43963;DHT22;29622;45.534;9.242;2023-03-01T18:37:18;12.30;48.00
43963;DHT22;29622;45.534;9.242;2023-03-01T18:42:20;13.50;47.50
43963;DHT22;29622;45.534;9.242;2023-03-01T18:47:21;14.10;46.60
43963;DHT22;29622;45.534;9.242;2023-03-01T18:52:22;14.80;46.20
43963;DHT22;29622;45.534;9.242;2023-03-01T18:57:24;15.00;45.70
43963;DHT22;29622;45.534;9.242;2023-03-01T19:02:25;14.50;45.80
43963;DHT22;29622;45.534;9.242;2023-03-01T19:07:26;14.20;46.30
43963;DHT22;29622;45.534;9.242;2023-03-01T19:12:27;13.90;46.30
43963;DHT22;29622;45.534;9.242;2023-03-01T19:17:28;13.40;46.90
43963;DHT22;29622;45.534;9.242;2023-03-01T19:22:30;13.40;47.00
43963;DHT22;29622;45.534;9.242;2023-03-01T19:27:31;13.00;47.40
43963;DHT22;29622;45.534;9.242;2023-03-01T19:32:32;12.70;47.30
43963;DHT22;29622;45.534;9.242;2023-03-01T19:37:33;12.50;47.90
43963;DHT22;29622;45.534;9.242;2023-03-01T19:42:34;12.60;47.60
43963;DHT22;29622;45.534;9.242;2023-03-01T19:47:35;12.30;47.50
43963;DHT22;29622;45.534;9.242;2023-03-01T19:52:35;12.00;48.10
43963;DHT22;29622;45.534;9.242;2023-03-01T19:57:36;11.40;48.30
43963;DHT22;29622;45.534;9.242;2023-03-01T20:02:36;11.00;48.80
43963;DHT22;29622;45.534;9.242;2023-03-01T20:07:37;10.80;49.50
43963;DHT22;29622;45.534;9.242;2023-03-01T20:12:38;10.60;49.20
43963;DHT22;29622;45.534;9.242;2023-03-01T20:17:38;10.10;49.80
43963;DHT22;29622;45.534;9.242;2023-03-01T20:22:39;9.90;50.50
43963;DHT22;29622;45.534;9.242;2023-03-01T20:27:40;9.70;51.00
43963;DHT22;29622;45.534;9.242;2023-03-01T20:32:41;10.20;51.40
43963;DHT22;29622;45.534;9.242;2023-03-01T20:37:41;10.50;51.30
43963;DHT22;29622;45.534;9.242;2023-03-01T20:42:42;10.90;51.20
43963;DHT22;29622;45.534;9.242;2023-03-01T20:47:43;11.10;51.20
43963;DHT22;29622;45.534;9.242;2023-03-01T20:52:43;10.90;50.50
43963;DHT22;29622;45.534;9.242;2023-03-01T20:57:44;10.50;50.90
43963;DHT22;29622;45.534;9.242;2023-03-01T21:02:45;10.20;51.00
43963;DHT22;29622;45.534;9.242;2023-03-01T21:07:45;9.80;51.20
43963;DHT22;29622;45.534;9.242;2023-03-01T21:12:46;9.50;51.60
43963;DHT22;29622;45.534;9.242;2023-03-01T21:17:47;9.30;52.00
43963;DHT22;29622;45.534;9.242;2023-03-01T21:22:47;9.10;52.30
43963;DHT22;29622;45.534;9.242;2023-03-01T21:27:48;8.90;52.50
43963;DHT22;29622;45.534;9.242;2023-03-01T21:32:49;8.90;52.90
43963;DHT22;29622;45.534;9.242;2023-03-01T21:37:50;8.90;52.80
43963;DHT22;29622;45.534;9.242;2023-03-01T21:42:50;8.70;52.90
43963;DHT22;29622;45.534;9.242;2023-03-01T21:47:51;8.60;53.10
43963;DHT22;29622;45.534;9.242;2023-03-01T21:53:17;8.40;53.40
43963;DHT22;29622;45.534;9.242;2023-03-01T21:58:19;8.30;53.50
43963;DHT22;29622;45.534;9.242;2023-03-01T22:03:20;8.20;53.90
43963;DHT22;29622;45.534;9.242;2023-03-01T22:08:20;8.30;53.90
43963;DHT22;29622;45.534;9.242;2023-03-01T22:13:21;8.50;53.90
43963;DHT22;29622;45.534;9.242;2023-03-01T22:18:22;8.90;54.30
43963;DHT22;29622;45.534;9.242;2023-03-01T22:23:23;9.10;53.50
43963;DHT22;29622;45.534;9.242;2023-03-01T22:28:23;8.80;53.60
43963;DHT22;29622;45.534;9.242;2023-03-01T22:33:24;8.60;53.90
43963;DHT22;29622;45.534;9.242;2023-03-01T22:38:25;8.40;54.20
43963;DHT22;29622;45.534;9.242;2023-03-01T22:43:26;8.30;54.40
43963;DHT22;29622;45.534;9.242;2023-03-01T22:48:26;8.20;54.50
43963;DHT22;29622;45.534;9.242;2023-03-01T22:53:27;8.30;54.60
43963;DHT22;29622;45.534;9.242;2023-03-01T22:58:27;8.40;54.30
43963;DHT22;29622;45.534;9.242;2023-03-01T23:03:28;8.40;54.40
43963;DHT22;29622;45.534;9.242;2023-03-01T23:08:29;8.20;54.50
43963;DHT22;29622;45.534;9.242;2023-03-01T23:13:29;8.20;54.80
43963;DHT22;29622;45.534;9.242;2023-03-01T23:18:30;8.10;55.00
43963;DHT22;29622;45.534;9.242;2023-03-01T23:23:30;8.20;55.10
43963;DHT22;29622;45.534;9.242;2023-03-01T23:28:33;8.10;55.30
43963;DHT22;29622;45.534;9.242;2023-03-01T23:33:34;8.40;55.40
43963;DHT22;29622;45.534;9.242;2023-03-01T23:38:37;8.40;55.10
43963;DHT22;29622;45.534;9.242;2023-03-01T23:43:37;8.40;55.20
43963;DHT22;29622;45.534;9.242;2023-03-01T23:48:39;8.30;55.30
43963;DHT22;29622;45.534;9.242;2023-03-01T23:53:46;8.30;55.50
43963;DHT22;29622;45.534;9.242;2023-03-01T23:58:55;8.20;55.70
